Time;durP1;ratioP1;P1;durP2;ratioP2;P2;SDS_P1;SDS_P2;PMS_P1;PMS_P2;Temp;Humidity;BMP_temperature;BMP_pressure;BME280_temperature;BME280_humidity;BME280_pressure;Samples;Min_cycle;Max_cycle;Signal;HPM_P1;HPM_P2
2021/09/16 00:00:32;;;;;;;2.33;1.43;;;24.20;60.30;;;;;;5020843;28;20211;-72
2021/09/16 00:02:59;;;;;;;1.17;0.97;;;24.20;60.50;;;;;;5023614;28;20258;-72
2021/09/16 00:05:26;;;;;;;7.10;1.70;;;24.20;60.50;;;;;;5022271;28;20223;-72
2021/09/16 00:07:53;;;;;;;3.10;0.77;;;24.10;60.50;;;;;;5005558;28;20650;-72
2021/09/16 00:10:20;;;;;;;1.47;1.33;;;24.10;60.60;;;;;;5022880;28;20548;-72
2021/09/16 00:12:47;;;;;;;0.20;0.20;;;24.10;60.70;;;;;;5021072;28;20246;-72
2021/09/16 00:15:14;;;;;;;2.87;1.30;;;24.10;60.80;;;;;;5012339;28;20222;-72
2021/09/16 00:17:42;;;;;;;1.63;1.53;;;24.10;60.90;;;;;;5003118;28;20219;-72
2021/09/16 00:20:09;;;;;;;2.20;0.80;;;24.10;60.90;;;;;;5013120;28;20588;-72
2021/09/16 00:22:36;;;;;;;2.27;0.60;;;24.00;60.90;;;;;;5012688;28;20644;-72
2021/09/16 00:25:06;;;;;;;2.93;0.63;;;24.00;60.80;;;;;;5015608;28;20230;-72
2021/09/16 00:27:33;;;;;;;0.20;0.20;;;24.00;60.80;;;;;;5019676;28;20219;-72
2021/09/16 00:30:00;;;;;;;0.50;0.50;;;23.90;60.60;;;;;;5026259;28;20631;-72
2021/09/16 00:32:28;;;;;;;6.30;0.90;;;23.90;60.50;;;;;;5028698;28;20695;-72
2021/09/16 00:34:55;;;;;;;0.77;0.77;;;23.90;60.30;;;;;;5024284;28;20223;-72
2021/09/16 00:37:22;;;;;;;20.10;2.63;;;23.90;61.00;;;;;;5020429;28;20606;-72
2021/09/16 00:39:49;;;;;;;0.30;0.30;;;23.90;60.30;;;;;;5027199;28;20211;-72
2021/09/16 00:42:17;;;;;;;0.33;0.33;;;23.90;60.30;;;;;;5027136;28;20893;-71
2021/09/16 00:44:45;;;;;;;5.73;0.87;;;23.90;60.30;;;;;;5024471;28;20223;-71
2021/09/16 00:47:14;;;;;;;2.87;1.23;;;23.90;60.30;;;;;;5028439;28;20219;-71
2021/09/16 00:49:42;;;;;;;3.60;0.77;;;23.90;60.20;;;;;;5030966;28;20282;-71
2021/09/16 00:52:11;;;;;;;0.60;0.60;;;23.90;60.30;;;;;;5014567;28;20326;-71
2021/09/16 00:54:42;;;;;;;0.67;0.67;;;23.90;60.20;;;;;;5032295;28;20211;-71
2021/09/16 00:57:14;;;;;;;2.13;0.93;;;23.90;60.00;;;;;;5031713;28;20226;-71
2021/09/16 00:59:44;;;;;;;0.67;0.67;;;23.90;59.90;;;;;;5015537;28;20223;-71
2021/09/16 01:02:11;;;;;;;1.23;0.60;;;23.90;59.70;;;;;;5032159;28;20218;-71
2021/09/16 01:04:39;;;;;;;0.70;0.70;;;23.90;59.50;;;;;;5028607;28;20677;-71
2021/09/16 01:07:13;;;;;;;0.47;0.30;;;23.90;59.30;;;;;;5021676;28;20636;-71
2021/09/16 01:09:42;;;;;;;0.77;0.77;;;24.00;59.10;;;;;;5012092;28;20230;-71
2021/09/16 01:12:10;;;;;;;1.67;1.20;;;24.00;58.80;;;;;;5031770;28;20238;-71
2021/09/16 01:14:37;;;;;;;0.53;0.47;;;24.00;58.50;;;;;;5032072;28;20238;-71
2021/09/16 01:17:04;;;;;;;0.17;0.17;;;24.10;58.30;;;;;;5031760;28;20222;-71
2021/09/16 01:19:32;;;;;;;0.50;0.50;;;24.10;58.10;;;;;;5025274;28;20253;-72
2021/09/16 01:21:59;;;;;;;0.33;0.33;;;24.10;57.90;;;;;;5023187;28;20226;-72
2021/09/16 01:24:26;;;;;;;2.00;0.97;;;24.10;57.80;;;;;;5015977;28;20219;-72
2021/09/16 01:26:53;;;;;;;0.40;0.40;;;24.10;57.80;;;;;;5025082;28;20220;-72
2021/09/16 01:29:20;;;;;;;0.40;0.40;;;24.10;57.80;;;;;;5023339;28;20615;-72
2021/09/16 01:31:49;;;;;;;0.33;0.33;;;24.10;57.70;;;;;;5026017;28;20238;-72
2021/09/16 01:34:17;;;;;;;3.23;0.83;;;24.10;57.70;;;;;;5026321;28;20271;-72
2021/09/16 01:36:48;;;;;;;0.40;0.40;;;24.10;57.70;;;;;;5023976;28;20226;-72
2021/09/16 01:39:16;;;;;;;0.63;0.63;;;24.00;57.60;;;;;;5026483;28;20697;-72
2021/09/16 01:41:44;;;;;;;0.47;0.47;;;24.00;57.60;;;;;;5023028;28;20242;-72
2021/09/16 01:44:11;;;;;;;0.90;0.63;;;24.00;57.80;;;;;;5022176;28;20230;-72
2021/09/16 01:46:38;;;;;;;0.53;0.53;;;24.00;57.90;;;;;;5030118;28;20297;-72
2021/09/16 01:49:05;;;;;;;3.87;1.63;;;23.90;57.90;;;;;;5027371;28;20215;-72
2021/09/16 01:51:34;;;;;;;1.40;0.40;;;23.90;58.00;;;;;;5023341;28;20793;-72
2021/09/16 01:54:02;;;;;;;5.53;1.50;;;23.90;58.00;;;;;;5027744;28;20214;-72
2021/09/16 01:56:30;;;;;;;1.03;1.03;;;23.80;58.00;;;;;;5024116;28;20599;-72
2021/09/16 01:58:57;;;;;;;0.63;0.63;;;23.80;58.10;;;;;;5009194;28;20216;-72
2021/09/16 02:01:24;;;;;;;0.40;0.40;;;23.70;58.20;;;;;;5022488;28;20273;-72
2021/09/16 02:03:52;;;;;;;0.90;0.87;;;23.70;58.30;;;;;;5025276;28;20223;-72
2021/09/16 02:06:21;;;;;;;0.93;0.93;;;23.70;58.40;;;;;;5024213;28;20220;-72
2021/09/16 02:08:48;;;;;;;1.50;0.97;;;23.60;58.40;;;;;;5022735;28;20211;-72
2021/09/16 02:11:15;;;;;;;0.80;0.80;;;23.60;58.30;;;;;;5005206;28;20208;-72
2021/09/16 02:13:42;;;;;;;0.53;0.53;;;23.60;58.20;;;;;;5024956;28;20635;-72
2021/09/16 02:16:09;;;;;;;0.30;0.30;;;23.60;58.30;;;;;;5024341;28;20207;-73
2021/09/16 02:18:36;;;;;;;4.23;1.77;;;23.60;58.40;;;;;;5017194;28;20265;-72
2021/09/16 02:21:03;;;;;;;2.03;1.10;;;23.60;58.50;;;;;;5025990;28;20215;-72
2021/09/16 02:23:30;;;;;;;0.20;0.20;;;23.50;58.60;;;;;;5022982;28;20216;-72
2021/09/16 02:25:57;;;;;;;0.97;0.97;;;23.50;58.70;;;;;;5029466;28;20678;-72
2021/09/16 02:28:24;;;;;;;0.33;0.33;;;23.50;58.70;;;;;;5025895;28;20277;-72
2021/09/16 02:30:51;;;;;;;0.50;0.50;;;23.50;58.60;;;;;;5016098;28;20223;-72
2021/09/16 02:33:18;;;;;;;0.93;0.93;;;23.50;58.60;;;;;;5013276;28;20301;-72
2021/09/16 02:35:51;;;;;;;0.23;0.23;;;23.40;58.50;;;;;;5014966;28;20524;-72
2021/09/16 02:38:23;;;;;;;1.13;1.03;;;23.40;58.40;;;;;;5024734;28;20210;-72
2021/09/16 02:40:50;;;;;;;0.73;0.73;;;23.40;58.40;;;;;;5024070;28;20203;-72
2021/09/16 02:43:17;;;;;;;8.40;1.23;;;23.40;58.30;;;;;;5024294;28;20214;-72
2021/09/16 02:45:44;;;;;;;0.60;0.60;;;23.40;58.30;;;;;;5023031;28;20301;-72
2021/09/16 02:48:12;;;;;;;0.60;0.60;;;23.40;58.30;;;;;;5021509;28;20231;-72
2021/09/16 02:50:39;;;;;;;0.50;0.50;;;23.40;58.20;;;;;;5025263;28;20207;-72
2021/09/16 02:53:06;;;;;;;0.60;0.60;;;23.40;58.20;;;;;;5024748;28;20223;-72
2021/09/16 02:55:33;;;;;;;1.00;0.63;;;23.40;58.10;;;;;;5014008;28;20212;-72
2021/09/16 02:58:00;;;;;;;0.03;0.03;;;23.40;58.10;;;;;;5008951;28;20230;-72
2021/09/16 03:00:27;;;;;;;0.40;0.40;;;23.30;58.00;;;;;;5021929;28;20207;-72
2021/09/16 03:02:54;;;;;;;0.30;0.30;;;23.30;58.00;;;;;;5015886;28;20219;-72
2021/09/16 03:05:21;;;;;;;1.30;0.67;;;23.40;58.00;;;;;;5022064;28;20226;-72
2021/09/16 03:07:49;;;;;;;0.10;0.10;;;23.40;58.60;;;;;;5005642;28;20647;-72
2021/09/16 03:10:16;;;;;;;0.23;0.23;;;23.40;57.90;;;;;;5023857;28;20222;-72
2021/09/16 03:12:43;;;;;;;17.43;0.73;;;23.40;58.00;;;;;;5021166;28;20263;-72
2021/09/16 03:15:11;;;;;;;0.60;0.60;;;23.40;58.00;;;;;;5024103;28;20234;-71
2021/09/16 03:17:38;;;;;;;0.30;0.30;;;23.40;57.90;;;;;;5013654;28;20324;-71
2021/09/16 03:20:06;;;;;;;0.60;0.60;;;23.40;57.80;;;;;;5021661;28;20226;-71
2021/09/16 03:22:34;;;;;;;0.73;0.73;;;23.40;57.60;;;;;;5021379;28;20578;-71
2021/09/16 03:25:01;;;;;;;2.47;0.60;;;23.50;57.60;;;;;;5004204;28;20219;-71
2021/09/16 03:27:28;;;;;;;0.30;0.30;;;23.50;57.50;;;;;;5019755;28;20603;-71
2021/09/16 03:29:55;;;;;;;0.10;0.10;;;23.50;57.50;;;;;;5023014;28;20710;-71
2021/09/16 03:32:22;;;;;;;1.27;0.60;;;23.50;57.50;;;;;;5024324;28;20702;-71
2021/09/16 03:34:49;;;;;;;0.10;0.10;;;23.40;57.40;;;;;;5004283;28;20223;-72
2021/09/16 03:37:16;;;;;;;1.70;1.60;;;23.40;57.50;;;;;;5023736;28;20646;-71
2021/09/16 03:39:43;;;;;;;0.10;0.10;;;23.40;57.60;;;;;;5022416;28;20434;-71
2021/09/16 03:42:10;;;;;;;0.60;0.60;;;23.40;57.60;;;;;;5021685;28;20219;-71
2021/09/16 03:44:37;;;;;;;0.83;0.30;;;23.40;57.70;;;;;;5014999;28;20562;-71
2021/09/16 03:47:06;;;;;;;0.57;0.57;;;23.40;57.70;;;;;;5020177;28;20666;-71
2021/09/16 03:49:38;;;;;;;5.10;1.33;;;23.40;57.60;;;;;;5023218;28;20601;-71
2021/09/16 03:52:07;;;;;;;1.20;0.67;;;23.40;57.50;;;;;;5023309;28;20235;-71
2021/09/16 03:54:35;;;;;;;0.20;0.20;;;23.50;57.40;;;;;;5022723;28;20594;-71
2021/09/16 03:57:03;;;;;;;0.20;0.20;;;23.50;57.30;;;;;;5024060;28;20662;-71
2021/09/16 03:59:30;;;;;;;0.10;0.10;;;23.60;57.30;;;;;;5021282;28;20555;-72
2021/09/16 04:01:57;;;;;;;11.67;0.97;;;23.60;57.20;;;;;;5023118;28;20218;-72
2021/09/16 04:04:24;;;;;;;4.80;1.33;;;23.60;57.20;;;;;;5024741;28;20298;-72
2021/09/16 04:06:51;;;;;;;0.87;0.57;;;23.60;57.30;;;;;;5020675;28;20208;-72
2021/09/16 04:09:19;;;;;;;0.00;0.00;;;23.60;57.40;;;;;;5022927;28;20211;-72
2021/09/16 04:11:46;;;;;;;0.87;0.80;;;23.60;57.60;;;;;;5013735;28;20214;-72
2021/09/16 04:14:13;;;;;;;0.10;0.10;;;23.50;57.70;;;;;;5020729;28;20656;-72
2021/09/16 04:16:40;;;;;;;0.37;0.37;;;23.50;57.70;;;;;;5003555;28;20269;-72
2021/09/16 04:19:07;;;;;;;0.30;0.30;;;23.50;57.80;;;;;;5025091;28;20215;-72
2021/09/16 04:21:34;;;;;;;0.30;0.30;;;23.50;57.90;;;;;;5012934;28;20605;-72
2021/09/16 04:24:01;;;;;;;0.67;0.63;;;23.50;57.90;;;;;;5022957;28;20272;-72
2021/09/16 04:26:28;;;;;;;0.83;0.43;;;23.40;57.90;;;;;;5020415;28;20215;-72
2021/09/16 04:28:54;;;;;;;0.20;0.20;;;23.50;58.00;;;;;;5020179;28;20274;-72
2021/09/16 04:31:21;;;;;;;0.40;0.40;;;23.50;58.00;;;;;;5022013;28;20215;-72
2021/09/16 04:33:48;;;;;;;0.40;0.40;;;23.50;58.10;;;;;;5023703;28;20267;-72
2021/09/16 04:36:17;;;;;;;0.30;0.30;;;23.50;58.20;;;;;;5023491;28;20207;-72
2021/09/16 04:38:46;;;;;;;0.23;0.23;;;23.50;58.20;;;;;;5020430;28;20215;-72
2021/09/16 04:41:13;;;;;;;0.10;0.10;;;23.50;58.40;;;;;;5022918;28;20210;-72
2021/09/16 04:43:40;;;;;;;0.20;0.20;;;23.40;58.40;;;;;;5022727;28;20230;-72
2021/09/16 04:46:07;;;;;;;0.10;0.10;;;23.40;58.40;;;;;;5021308;28;20251;-72
2021/09/16 04:48:34;;;;;;;0.70;0.70;;;23.30;58.50;;;;;;5014467;28;20285;-72
2021/09/16 04:51:00;;;;;;;0.40;0.40;;;23.30;58.60;;;;;;5025067;28;20272;-72
2021/09/16 04:53:28;;;;;;;1.27;1.20;;;23.30;58.80;;;;;;5012910;28;20227;-72
2021/09/16 04:55:55;;;;;;;0.30;0.30;;;23.30;58.80;;;;;;5022404;28;20716;-72
2021/09/16 04:58:21;;;;;;;0.20;0.20;;;23.20;58.80;;;;;;5020499;28;20211;-72
2021/09/16 05:00:48;;;;;;;0.30;0.30;;;23.30;58.90;;;;;;5013716;28;20268;-72
2021/09/16 05:03:16;;;;;;;0.30;0.30;;;23.30;59.00;;;;;;5021035;28;20211;-72
2021/09/16 05:05:43;;;;;;;0.80;0.77;;;23.20;59.20;;;;;;5021683;28;20219;-72
2021/09/16 05:08:11;;;;;;;1.87;0.27;;;23.30;59.30;;;;;;5022613;28;20215;-72
2021/09/16 05:10:38;;;;;;;1.60;0.77;;;23.20;59.30;;;;;;5021968;28;20216;-72
2021/09/16 05:13:05;;;;;;;0.20;0.20;;;23.20;59.20;;;;;;5026434;28;20227;-72
2021/09/16 05:15:32;;;;;;;0.10;0.10;;;23.20;59.30;;;;;;5007521;28;20223;-72
2021/09/16 05:17:59;;;;;;;1.17;0.50;;;23.20;59.50;;;;;;5015275;28;20277;-72
2021/09/16 05:20:26;;;;;;;0.40;0.40;;;23.20;59.60;;;;;;5026531;28;20289;-72
2021/09/16 05:22:53;;;;;;;0.30;0.30;;;23.20;59.80;;;;;;5023375;28;20224;-72
2021/09/16 05:25:20;;;;;;;0.00;0.00;;;23.20;59.80;;;;;;5025654;28;20674;-72
2021/09/16 05:27:48;;;;;;;0.53;0.33;;;23.20;60.10;;;;;;5022942;28;20636;-72
2021/09/16 05:30:15;;;;;;;0.73;0.73;;;23.10;60.50;;;;;;5025839;28;20451;-72
2021/09/16 05:32:42;;;;;;;1.13;0.60;;;23.10;61.20;;;;;;5014054;28;20235;-72
2021/09/16 05:35:10;;;;;;;2.20;1.07;;;23.10;61.90;;;;;;5026098;28;20214;-72
2021/09/16 05:37:38;;;;;;;0.10;0.10;;;23.00;62.70;;;;;;5007079;28;20224;-72
2021/09/16 05:40:05;;;;;;;0.40;0.40;;;22.90;63.40;;;;;;5023961;28;20220;-72
2021/09/16 05:42:32;;;;;;;0.10;0.10;;;22.90;64.10;;;;;;5025859;28;20277;-71
2021/09/16 05:44:59;;;;;;;0.40;0.40;;;22.80;64.70;;;;;;5023310;28;20255;-71
2021/09/16 05:47:26;;;;;;;0.70;0.70;;;22.70;65.50;;;;;;5024715;28;20241;-71
2021/09/16 05:49:53;;;;;;;0.20;0.20;;;22.60;66.10;;;;;;5016107;28;20225;-72
2021/09/16 05:52:20;;;;;;;0.60;0.60;;;22.60;66.60;;;;;;5006016;28;20222;-72
2021/09/16 05:54:47;;;;;;;0.60;0.60;;;22.60;67.20;;;;;;5026116;28;20264;-72
2021/09/16 05:57:15;;;;;;;1.00;1.00;;;22.50;67.80;;;;;;5007592;28;20223;-72
2021/09/16 05:59:42;;;;;;;0.60;0.60;;;22.50;68.40;;;;;;5008739;28;20211;-74
2021/09/16 06:02:08;;;;;;;1.90;0.93;;;22.50;68.70;;;;;;5024682;28;20273;-73
2021/09/16 06:04:35;;;;;;;0.47;0.47;;;22.50;69.00;;;;;;5013368;28;20223;-73
2021/09/16 06:07:05;;;;;;;0.30;0.30;;;22.40;69.50;;;;;;5025515;28;20281;-73
2021/09/16 06:09:34;;;;;;;40.53;2.23;;;22.50;70.40;;;;;;5023512;28;20609;-73
2021/09/16 06:12:02;;;;;;;0.57;0.57;;;22.40;70.70;;;;;;5023049;28;20227;-73
2021/09/16 06:14:31;;;;;;;0.20;0.20;;;22.40;70.60;;;;;;5008228;28;20241;-73
2021/09/16 06:16:58;;;;;;;1.10;0.67;;;22.40;70.70;;;;;;5022532;28;20212;-73
2021/09/16 06:19:25;;;;;;;3.77;1.60;;;22.40;70.90;;;;;;5023992;28;20257;-73
2021/09/16 06:21:52;;;;;;;0.67;0.60;;;22.50;71.10;;;;;;5024560;28;20211;-73
2021/09/16 06:24:19;;;;;;;0.30;0.30;;;22.50;70.90;;;;;;5025607;28;20215;-73
2021/09/16 06:26:46;;;;;;;2.13;1.03;;;22.50;71.10;;;;;;5004998;28;20219;-73
2021/09/16 06:29:13;;;;;;;1.20;1.07;;;22.60;71.30;;;;;;5022056;28;20228;-73
2021/09/16 06:31:40;;;;;;;0.27;0.27;;;22.70;71.50;;;;;;5023440;28;20281;-73
2021/09/16 06:34:07;;;;;;;0.30;0.30;;;22.70;71.60;;;;;;5026047;28;20273;-73
2021/09/16 06:36:34;;;;;;;3.80;1.37;;;22.70;71.80;;;;;;5021551;28;20300;-73
2021/09/16 06:39:02;;;;;;;0.20;0.20;;;22.80;71.70;;;;;;5024974;28;20211;-73
2021/09/16 06:41:29;;;;;;;0.40;0.40;;;22.90;71.70;;;;;;5022598;28;20212;-73
2021/09/16 06:43:56;;;;;;;0.30;0.30;;;23.00;71.80;;;;;;5023043;28;20211;-73
2021/09/16 06:46:23;;;;;;;5.03;0.33;;;23.00;71.60;;;;;;5030761;28;20278;-73
2021/09/16 06:48:50;;;;;;;0.70;0.70;;;23.00;71.60;;;;;;5041530;28;20235;-73
2021/09/16 06:51:18;;;;;;;0.17;0.17;;;23.10;71.90;;;;;;5043737;28;20295;-73
2021/09/16 06:53:59;;;;;;;1.20;1.10;;;23.10;72.10;;;;;;5049576;28;20237;-73
2021/09/16 06:56:27;;;;;;;0.30;0.30;;;23.20;72.10;;;;;;5041780;28;20207;-73
2021/09/16 06:58:54;;;;;;;6.53;0.77;;;23.20;72.30;;;;;;5024175;28;20207;-73
2021/09/16 07:01:21;;;;;;;0.93;0.60;;;23.30;72.50;;;;;;5024552;28;20222;-73
2021/09/16 07:03:48;;;;;;;0.83;0.67;;;23.30;72.40;;;;;;5044585;28;20218;-73
2021/09/16 07:06:16;;;;;;;2.77;1.43;;;23.40;72.50;;;;;;5041372;28;20225;-73
2021/09/16 07:08:43;;;;;;;0.43;0.43;;;23.40;72.50;;;;;;5043433;28;20560;-73
2021/09/16 07:11:11;;;;;;;4.63;1.90;;;23.50;72.60;;;;;;5025735;28;20222;-73
2021/09/16 07:13:38;;;;;;;0.10;0.10;;;23.50;72.80;;;;;;5041405;28;20257;-73
2021/09/16 07:16:05;;;;;;;0.10;0.10;;;23.50;72.90;;;;;;5034457;28;20553;-73
2021/09/16 07:18:34;;;;;;;0.50;0.50;;;23.50;73.10;;;;;;5041711;28;20221;-73
2021/09/16 07:21:02;;;;;;;0.50;0.50;;;23.50;73.50;;;;;;5025021;28;20230;-73
2021/09/16 07:23:29;;;;;;;0.20;0.20;;;23.50;73.70;;;;;;5044036;28;20210;-73
2021/09/16 07:26:03;;;;;;;7.33;0.87;;;23.50;74.40;;;;;;5025050;28;20221;-74
2021/09/16 07:28:34;;;;;;;0.30;0.30;;;23.50;74.50;;;;;;5039447;28;20221;-75
2021/09/16 07:31:02;;;;;;;1.07;0.57;;;23.50;74.70;;;;;;5034954;28;20242;-73
2021/09/16 07:33:29;;;;;;;0.77;0.50;;;23.40;74.90;;;;;;5043894;28;20570;-72
2021/09/16 07:35:56;;;;;;;1.07;1.03;;;23.30;75.20;;;;;;5041606;28;20223;-72
2021/09/16 07:38:23;;;;;;;0.43;0.43;;;23.30;75.80;;;;;;5042155;28;20688;-72
2021/09/16 07:40:50;;;;;;;1.27;1.17;;;23.20;76.30;;;;;;5043186;28;20285;-72
2021/09/16 07:43:18;;;;;;;1.47;1.37;;;23.10;76.60;;;;;;5023329;28;20277;-72
2021/09/16 07:45:47;;;;;;;0.30;0.30;;;23.00;77.40;;;;;;5042651;28;20725;-71
2021/09/16 07:48:14;;;;;;;0.83;0.77;;;23.00;78.30;;;;;;5042177;28;20661;-71
2021/09/16 07:50:41;;;;;;;0.30;0.30;;;22.80;78.50;;;;;;5041203;28;20273;-71
2021/09/16 07:53:10;;;;;;;1.73;1.33;;;22.80;79.40;;;;;;5043812;28;20234;-70
2021/09/16 07:55:37;;;;;;;0.50;0.50;;;22.70;79.50;;;;;;5031936;28;20546;-70
2021/09/16 07:58:06;;;;;;;0.33;0.33;;;22.70;79.70;;;;;;5040324;28;20697;-70
2021/09/16 08:00:33;;;;;;;4.13;1.27;;;22.70;79.80;;;;;;5040706;28;20215;-70
2021/09/16 08:03:00;;;;;;;3.40;0.73;;;22.60;79.90;;;;;;5043554;28;20214;-70
2021/09/16 08:05:28;;;;;;;0.43;0.43;;;22.70;80.00;;;;;;5040529;28;20218;-70
2021/09/16 08:07:55;;;;;;;2.53;1.93;;;22.70;80.40;;;;;;5042342;28;20211;-70
2021/09/16 08:10:23;;;;;;;0.87;0.87;;;22.70;80.60;;;;;;5042232;28;20736;-70
2021/09/16 08:12:50;;;;;;;1.80;1.43;;;22.60;80.60;;;;;;5040355;28;20218;-70
2021/09/16 08:15:18;;;;;;;1.13;1.13;;;22.70;80.80;;;;;;5031736;28;20321;-70
2021/09/16 08:17:45;;;;;;;1.37;1.27;;;22.70;81.00;;;;;;5031757;28;20222;-70
2021/09/16 08:20:13;;;;;;;7.83;1.83;;;22.70;81.20;;;;;;5031766;28;20211;-70
2021/09/16 08:22:40;;;;;;;0.80;0.73;;;22.80;81.30;;;;;;5031333;28;20462;-70
2021/09/16 08:25:09;;;;;;;5.53;1.20;;;22.80;81.40;;;;;;5031773;28;20280;-71
2021/09/16 08:27:36;;;;;;;0.20;0.20;;;22.70;81.50;;;;;;5019872;28;20215;-71
2021/09/16 08:30:06;;;;;;;0.60;0.60;;;22.80;81.70;;;;;;5042046;28;20215;-71
2021/09/16 08:32:34;;;;;;;0.10;0.10;;;22.80;81.80;;;;;;5040165;28;20225;-71
2021/09/16 08:35:06;;;;;;;1.50;1.03;;;22.80;81.80;;;;;;5027616;28;20242;-71
2021/09/16 08:37:34;;;;;;;0.47;0.47;;;22.90;82.00;;;;;;5041538;28;20289;-72
2021/09/16 08:40:03;;;;;;;1.90;1.80;;;22.90;82.20;;;;;;5042949;28;20218;-72
2021/09/16 08:42:30;;;;;;;0.27;0.27;;;22.90;82.30;;;;;;5039522;28;20223;-72
2021/09/16 08:44:57;;;;;;;0.33;0.33;;;22.90;82.50;;;;;;5026397;28;20234;-72
2021/09/16 08:47:25;;;;;;;0.23;0.23;;;22.90;82.80;;;;;;5045188;28;20218;-72
2021/09/16 08:49:55;;;;;;;23.77;1.37;;;22.90;83.00;;;;;;5027469;28;20215;-72
2021/09/16 08:52:22;;;;;;;0.30;0.30;;;22.90;83.20;;;;;;5046767;28;20223;-72
2021/09/16 08:54:51;;;;;;;0.30;0.30;;;22.90;83.40;;;;;;5044540;28;20243;-72
2021/09/16 08:57:20;;;;;;;0.40;0.40;;;22.90;83.50;;;;;;5045092;28;20264;-72
2021/09/16 08:59:48;;;;;;;1.30;1.20;;;22.90;83.60;;;;;;5045007;28;20575;-73
2021/09/16 09:02:15;;;;;;;0.60;0.60;;;22.90;83.90;;;;;;5025348;28;20214;-73
2021/09/16 09:04:43;;;;;;;26.40;1.07;;;22.80;84.20;;;;;;5044553;28;20642;-73
2021/09/16 09:07:12;;;;;;;1.10;1.03;;;22.90;84.30;;;;;;5043419;28;20215;-73
2021/09/16 09:09:43;;;;;;;4.57;1.03;;;22.80;84.30;;;;;;5026767;28;20309;-73
2021/09/16 09:12:15;;;;;;;1.00;0.97;;;22.80;84.30;;;;;;5026309;28;20210;-73
2021/09/16 09:14:46;;;;;;;0.33;0.33;;;22.80;84.30;;;;;;5044754;28;20245;-74
2021/09/16 09:17:21;;;;;;;1.93;0.83;;;22.80;84.40;;;;;;5046429;28;20224;-73
2021/09/16 09:19:50;;;;;;;4.63;1.00;;;22.80;84.50;;;;;;5026868;28;20206;-73
2021/09/16 09:22:18;;;;;;;0.60;0.60;;;22.80;84.50;;;;;;5043543;28;20300;-73
2021/09/16 09:24:47;;;;;;;0.47;0.47;;;22.80;84.50;;;;;;5046719;28;20221;-73
2021/09/16 09:27:20;;;;;;;0.87;0.83;;;22.90;84.60;;;;;;5045118;28;20214;-73
2021/09/16 09:30:13;;;;;;;0.20;0.20;;;22.90;84.60;;;;;;5041832;28;20240;-73
2021/09/16 09:32:46;;;;;;;0.67;0.30;;;22.90;84.60;;;;;;5045172;28;20215;-74
2021/09/16 09:35:37;;;;;;;0.33;0.33;;;23.00;84.70;;;;;;5043629;28;20675;-74
2021/09/16 09:38:04;;;;;;;0.00;0.00;;;23.00;84.80;;;;;;5044313;28;20207;-73
2021/09/16 09:40:37;;;;;;;0.20;0.20;;;23.10;84.70;;;;;;5043852;28;20206;-73
2021/09/16 09:43:21;;;;;;;1.87;0.60;;;23.00;84.60;;;;;;5036898;28;20214;-73
2021/09/16 09:46:11;;;;;;;0.30;0.30;;;23.10;84.70;;;;;;5036518;28;20613;-73
2021/09/16 09:48:40;;;;;;;0.20;0.20;;;23.10;84.70;;;;;;5046033;28;20215;-73
2021/09/16 09:51:10;;;;;;;1.23;0.80;;;23.10;84.80;;;;;;5041833;28;20612;-73
2021/09/16 09:53:39;;;;;;;0.33;0.33;;;23.10;84.90;;;;;;5046464;28;20245;-73
2021/09/16 09:56:21;;;;;;;0.40;0.40;;;23.10;85.10;;;;;;5026730;28;20215;-74
2021/09/16 09:58:48;;;;;;;1.47;1.37;;;23.00;84.90;;;;;;5030152;28;20214;-74
2021/09/16 10:01:27;;;;;;;4.97;0.90;;;23.00;85.10;;;;;;5027355;28;20657;-74
2021/09/16 10:03:55;;;;;;;2.10;1.13;;;23.00;85.20;;;;;;5043971;28;20469;-73
2021/09/16 10:06:35;;;;;;;3.00;0.83;;;23.00;85.20;;;;;;5043439;28;20218;-73
2021/09/16 10:09:09;;;;;;;0.10;0.10;;;23.00;85.20;;;;;;5043268;28;20211;-73
2021/09/16 10:11:40;;;;;;;0.40;0.40;;;23.10;85.20;;;;;;5043031;28;20651;-73
2021/09/16 10:14:08;;;;;;;0.87;0.70;;;23.10;85.20;;;;;;5030074;28;20258;-73
2021/09/16 10:16:35;;;;;;;5.30;1.07;;;23.20;85.20;;;;;;5044122;28;20283;-73
2021/09/16 10:19:04;;;;;;;0.33;0.33;;;23.20;85.20;;;;;;5044169;28;20306;-73
2021/09/16 10:21:32;;;;;;;0.30;0.30;;;23.20;85.20;;;;;;5042394;28;20211;-73
2021/09/16 10:24:00;;;;;;;0.63;0.63;;;23.40;85.00;;;;;;5024923;28;20219;-73
2021/09/16 10:26:49;;;;;;;0.33;0.33;;;23.50;84.90;;;;;;5026579;28;20225;-73
2021/09/16 10:29:28;;;;;;;0.27;0.27;;;23.60;85.40;;;;;;5034681;28;20219;-74
2021/09/16 10:32:07;;;;;;;1.10;1.10;;;23.70;84.50;;;;;;5043603;28;20589;-74
2021/09/16 10:34:48;;;;;;;1.07;1.03;;;23.70;84.40;;;;;;5042897;28;20662;-74
2021/09/16 10:37:18;;;;;;;0.53;0.30;;;23.80;85.00;;;;;;5025588;28;20214;-74
2021/09/16 10:39:48;;;;;;;0.37;0.37;;;23.90;84.20;;;;;;5043072;28;20253;-74
2021/09/16 10:42:16;;;;;;;2.90;0.70;;;23.90;84.10;;;;;;5045072;28;20226;-74
2021/09/16 10:44:44;;;;;;;0.20;0.20;;;23.90;84.10;;;;;;5033810;28;20219;-74
2021/09/16 10:47:19;;;;;;;1.13;0.77;;;24.00;84.30;;;;;;5043034;28;20638;-74
2021/09/16 10:49:48;;;;;;;1.50;0.67;;;23.90;84.50;;;;;;5035800;28;20202;-74
2021/09/16 10:52:22;;;;;;;1.47;0.63;;;23.90;84.50;;;;;;5033593;28;20241;-75
2021/09/16 10:54:54;;;;;;;0.73;0.33;;;23.90;84.60;;;;;;5047670;28;20272;-74
2021/09/16 10:57:31;;;;;;;0.77;0.77;;;23.80;85.20;;;;;;5040687;28;20298;-75
2021/09/16 10:59:59;;;;;;;0.20;0.20;;;23.80;84.90;;;;;;5044137;28;20596;-75
2021/09/16 11:02:46;;;;;;;3.30;2.53;;;23.80;85.10;;;;;;5041268;28;20634;-74
2021/09/16 11:05:18;;;;;;;3.67;0.53;;;23.80;85.20;;;;;;5045526;28;20672;-75
2021/09/16 11:07:49;;;;;;;0.10;0.10;;;23.90;85.30;;;;;;5041808;28;20238;-75
2021/09/16 11:10:16;;;;;;;1.50;1.40;;;24.10;85.30;;;;;;5045135;28;20222;-74
2021/09/16 11:12:46;;;;;;;0.03;0.03;;;24.30;84.90;;;;;;5041429;28;20218;-75
2021/09/16 11:15:27;;;;;;;1.70;0.63;;;24.60;84.60;;;;;;5041174;28;20574;-75
2021/09/16 11:18:10;;;;;;;1.40;1.30;;;24.90;84.10;;;;;;5045294;28;20301;-75
2021/09/16 11:20:38;;;;;;;0.77;0.77;;;25.30;83.20;;;;;;5025102;28;20253;-75
2021/09/16 11:23:06;;;;;;;0.60;0.50;;;25.50;81.40;;;;;;5041003;28;20226;-75
2021/09/16 11:25:38;;;;;;;1.97;1.80;;;25.60;81.00;;;;;;5043583;28;20638;-75
2021/09/16 11:28:06;;;;;;;1.27;1.03;;;25.60;80.80;;;;;;5039961;28;20211;-75
2021/09/16 11:30:35;;;;;;;0.10;0.10;;;25.60;80.90;;;;;;5020263;28;20215;-75
2021/09/16 11:33:04;;;;;;;0.53;0.27;;;25.60;80.70;;;;;;5037265;28;20228;-75
2021/09/16 11:35:31;;;;;;;0.50;0.50;;;25.70;81.00;;;;;;5042480;28;20238;-74
2021/09/16 11:38:02;;;;;;;0.60;0.60;;;25.90;80.50;;;;;;5042896;28;20218;-74
2021/09/16 11:40:32;;;;;;;1.23;1.13;;;26.00;79.40;;;;;;5040411;28;20219;-75
2021/09/16 11:43:02;;;;;;;0.27;0.27;;;26.10;79.50;;;;;;5043240;28;20218;-75
2021/09/16 11:45:39;;;;;;;2.43;0.80;;;26.30;78.80;;;;;;5024926;28;20242;-75
2021/09/16 11:48:10;;;;;;;1.37;0.53;;;26.60;78.30;;;;;;5041019;28;20532;-74
2021/09/16 11:50:47;;;;;;;0.40;0.40;;;26.80;77.70;;;;;;5041752;28;20210;-74
2021/09/16 11:53:23;;;;;;;0.23;0.23;;;27.00;77.10;;;;;;5034109;28;20232;-74
2021/09/16 11:55:56;;;;;;;1.03;0.60;;;27.20;75.70;;;;;;5022181;28;20304;-74
2021/09/16 11:58:35;;;;;;;2.43;0.87;;;27.30;75.30;;;;;;5041392;28;20601;-74
2021/09/16 12:01:14;;;;;;;0.77;0.77;;;27.40;75.30;;;;;;5042711;28;20226;-74
2021/09/16 12:03:44;;;;;;;0.20;0.20;;;27.50;73.90;;;;;;5032617;28;20203;-74
2021/09/16 12:06:16;;;;;;;0.30;0.30;;;27.60;73.60;;;;;;5040985;28;20241;-74
2021/09/16 12:08:45;;;;;;;0.40;0.40;;;27.80;73.80;;;;;;5043635;28;20218;-74
2021/09/16 12:11:12;;;;;;;1.27;1.03;;;28.00;72.90;;;;;;5041350;28;20277;-74
2021/09/16 12:13:48;;;;;;;0.43;0.30;;;28.10;73.00;;;;;;5040930;28;20214;-74
2021/09/16 12:16:30;;;;;;;0.13;0.13;;;28.20;72.50;;;;;;5040149;28;20230;-74
2021/09/16 12:19:01;;;;;;;0.90;0.83;;;28.30;71.60;;;;;;5022778;28;20211;-74
2021/09/16 12:21:32;;;;;;;0.10;0.10;;;28.20;71.20;;;;;;5022972;28;20280;-74
2021/09/16 12:24:13;;;;;;;1.00;0.70;;;28.20;71.30;;;;;;5041545;28;20246;-74
2021/09/16 12:26:43;;;;;;;0.07;0.07;;;28.10;71.70;;;;;;5040856;28;20269;-74
2021/09/16 12:29:14;;;;;;;0.13;0.13;;;28.20;71.80;;;;;;5040151;28;20382;-74
2021/09/16 12:31:53;;;;;;;0.23;0.23;;;28.30;71.70;;;;;;5014664;28;20207;-74
2021/09/16 12:34:20;;;;;;;0.83;0.83;;;28.40;71.30;;;;;;5041193;28;20237;-74
2021/09/16 12:37:01;;;;;;;0.20;0.20;;;28.50;71.10;;;;;;5025148;28;20214;-74
2021/09/16 12:39:40;;;;;;;0.40;0.40;;;28.50;71.20;;;;;;5039577;28;20633;-74
2021/09/16 12:42:14;;;;;;;0.27;0.27;;;28.50;71.10;;;;;;5040087;28;20218;-74
2021/09/16 12:44:43;;;;;;;1.23;1.20;;;28.60;71.00;;;;;;5031653;28;20244;-74
2021/09/16 12:47:13;;;;;;;0.50;0.50;;;28.60;70.20;;;;;;5024240;28;20218;-74
2021/09/16 12:49:43;;;;;;;0.30;0.30;;;28.60;70.50;;;;;;5003837;28;20219;-73
2021/09/16 12:52:32;;;;;;;0.20;0.20;;;28.70;70.30;;;;;;5011866;28;20219;-73
2021/09/16 12:55:01;;;;;;;1.13;1.13;;;28.80;69.30;;;;;;5021796;28;20239;-74